Hawk — LAGF7 — position and weather

sailwx.info

Track history (hours):
 
Tides and Currents Weather Stations Pressure Air Temp Water Temp Dewpoint Dewpoint Depression Visibility Wind Speed Wind Dir Waves Ship Positions

Hawk

Last reported at 2014-Oct-16 21:07 UTC. Time now 2014-Oct-22 22:22 UTC.
Position N 50°01' W 002°52'.

Length 223 m; draft 8.7 m.

Type: Cargo ship. MMSI: 259848000.

Date/timePositionNaut miles runAvg speedWind from/ knotsBaromVisibWave heightAir tempDewpointWater temp
2014-Oct-16 21:07N 50°01' W 002°52'4 7.0
2014-Oct-16 20:33N 50°02' W 002°46'7 6.6
2014-Oct-16 19:33N 50°04' W 002°36'12 8.3
2014-Oct-16 18:09N 50°07' W 002°19'712.6
2014-Oct-16 17:33N 50°09' W 002°08'42 9.4
2014-Oct-16 13:06N 50°21' W 001°05'40 1.7
2014-Oct-15 13:03N 50°33' W 000°05'2 3.8
2014-Oct-15 12:30N 50°33' W 000°02'4 4.2
2014-Oct-15 11:33N 50°34' E 000°04'5 4.8
2014-Oct-15 10:33N 50°35' E 000°11'6 5.6
2014-Oct-15 09:33N 50°37' E 000°20'6 6.3
2014-Oct-15 08:33N 50°38' E 000°30'1111.0
2014-Oct-15 07:33N 50°43' E 000°45'1312.4
2014-Oct-15 06:31N 50°51' E 001°01'5 5.7
2014-Oct-15 05:33N 50°54' E 001°08'6 6.5
2014-Oct-15 04:34N 50°58' E 001°16'6 5.7
2014-Oct-15 03:33N 51°02' E 001°23'6 5.6
2014-Oct-15 02:33N 51°06' E 001°30'6 5.6
2014-Oct-15 01:33N 51°09' E 001°37'7 6.9
2014-Oct-15 00:34N 51°13' E 001°45'7 7.4
2014-Oct-14 23:33N 51°20' E 001°50'7 6.9
2014-Oct-14 22:33N 51°26' E 001°54'6 5.6
2014-Oct-14 21:33N 51°31' E 001°60'6 5.9
2014-Oct-14 20:33N 51°35' E 002°06'6 6.3
2014-Oct-14 19:33N 51°40' E 002°13'6 5.8
2014-Oct-14 18:33N 51°44' E 002°20'6 5.8
2014-Oct-14 17:32N 51°48' E 002°26'6 5.8
2014-Oct-14 16:26N 51°53' E 002°33'10 5.0
2014-Oct-14 14:25N 52°02' E 002°41'6 6.8
2014-Oct-14 13:33N 52°08' E 002°41'404 9.6
2014-Oct-12 19:27N 58°43' E 005°06'1011.4
2014-Oct-12 18:33N 58°53' E 005°05'1110.9
2014-Oct-12 17:33N 59°03' E 005°12'10 9.8
2014-Oct-12 16:33N 59°06' E 005°31'7 7.4
2014-Oct-12 15:33N 59°02' E 005°41'0 0.1
2014-Oct-12 14:33N 59°02' E 005°41'0 0.1
2014-Oct-12 13:33N 59°02' E 005°42'0 0.0
2014-Oct-12 12:33N 59°02' E 005°42'0 0.0
2014-Oct-12 11:33N 59°02' E 005°42'0 0.0
2014-Oct-12 10:33N 59°02' E 005°41'0 0.1
2014-Oct-12 09:33N 59°02' E 005°41'0 0.0
2014-Oct-12 08:33N 59°02' E 005°41'0 0.1
2014-Oct-12 07:33N 59°02' E 005°41'0 0.0
2014-Oct-12 06:33N 59°02' E 005°41'0 0.1
2014-Oct-12 05:33N 59°02' E 005°41'0 0.1
2014-Oct-12 04:33N 59°02' E 005°41'0 0.0
2014-Oct-12 03:33N 59°02' E 005°41'0 0.1
2014-Oct-12 02:33N 59°02' E 005°41'0 0.0
2014-Oct-12 01:33N 59°02' E 005°41'0 0.1
2014-Oct-12 00:33N 59°02' E 005°41'0 0.0
2014-Oct-11 23:33N 59°02' E 005°41'0 0.0
2014-Oct-11 22:30N 59°02' E 005°41'0 0.0
2014-Oct-11 21:33N 59°02' E 005°41'0 0.0
2014-Oct-11 20:33N 59°02' E 005°41'0 0.1
2014-Oct-11 19:33N 59°02' E 005°41'0 0.1
2014-Oct-11 18:33N 59°02' E 005°41'0 0.0
2014-Oct-11 17:33N 59°02' E 005°41'0 0.0
2014-Oct-11 16:33N 59°02' E 005°41'0 0.0
2014-Oct-11 15:30N 59°02' E 005°41'0 0.0
2014-Oct-11 14:30N 59°02' E 005°41'0 0.0
2014-Oct-11 13:33N 59°02' E 005°41'0 0.0
2014-Oct-11 12:30N 59°02' E 005°41'0 0.0
2014-Oct-11 11:33N 59°02' E 005°41'0 0.0
2014-Oct-11 10:24N 59°02' E 005°41'0 0.0
2014-Oct-11 09:33N 59°02' E 005°41'0 0.0
2014-Oct-11 08:33N 59°02' E 005°41'0 0.0
2014-Oct-11 07:33N 59°02' E 005°41'0 0.0
2014-Oct-11 06:33N 59°02' E 005°41'0 0.1
2014-Oct-11 05:33N 59°02' E 005°41'0 0.0
2014-Oct-11 04:33N 59°02' E 005°41'0 0.0
2014-Oct-11 03:33N 59°02' E 005°41'0 0.0
2014-Oct-11 02:33N 59°02' E 005°41'0 0.0
2014-Oct-11 01:33N 59°02' E 005°41'0 0.0
2014-Oct-11 00:33N 59°02' E 005°41'0 0.0
2014-Oct-10 23:33N 59°02' E 005°42'0 0.1
2014-Oct-10 22:33N 59°02' E 005°41'0 0.0
2014-Oct-10 21:33N 59°02' E 005°41'0 0.0
2014-Oct-10 20:33N 59°02' E 005°41'0 0.2
2014-Oct-10 19:33N 59°02' E 005°42'0 0.0
2014-Oct-10 18:33N 59°02' E 005°42'0 0.0
2014-Oct-10 17:33N 59°02' E 005°42'0 0.0
2014-Oct-10 16:33N 59°02' E 005°42'0 0.0
2014-Oct-10 15:33N 59°02' E 005°42'0 0.1
2014-Oct-10 14:33N 59°02' E 005°42'0 0.1
2014-Oct-10 13:33N 59°02' E 005°42'0 0.0
2014-Oct-10 12:33N 59°02' E 005°42'0 0.1
2014-Oct-10 11:33N 59°02' E 005°42'0 0.0
2014-Oct-10 10:33N 59°02' E 005°42'0 0.0
2014-Oct-10 09:33N 59°02' E 005°42'0 0.0
2014-Oct-10 08:33N 59°02' E 005°42'0 0.1
2014-Oct-10 07:33N 59°02' E 005°42'0 0.2
2014-Oct-10 06:34N 59°02' E 005°42'5 5.5
2014-Oct-10 05:34N 59°05' E 005°33'5 5.5
2014-Oct-10 04:34N 59°05' E 005°22'8 7.6
2014-Oct-10 03:34N 58°57' E 005°19'9 9.2
2014-Oct-10 02:33N 58°48' E 005°16'10 9.8
2014-Oct-10 01:33N 58°38' E 005°16'10 9.4
2014-Oct-10 00:32N 58°29' E 005°11'11 9.4
2014-Oct-09 23:19N 58°18' E 005°08'8 9.5
2014-Oct-09 22:31N 58°10' E 005°06'9 9.8
2014-Oct-09 21:33N 58°01' E 005°03'23311.6
2014-Oct-09 01:27N 54°08' E 004°36'1112.1
2014-Oct-09 00:33N 53°57' E 004°37'1212.0
2014-Oct-08 23:33N 53°48' E 004°23'1212.3
2014-Oct-08 22:33N 53°40' E 004°07'12912.9
2014-Oct-08 12:33N 51°44' E 002°34'1414.2
2014-Oct-08 11:32N 51°33' E 002°20'1413.9
2014-Oct-08 10:34N 51°21' E 002°09'1312.9
2014-Oct-08 09:33N 51°11' E 001°56'1212.2
2014-Oct-08 08:33N 51°03' E 001°42'1110.9
2014-Oct-08 07:34N 50°55' E 001°30'1110.5
2014-Oct-08 06:33N 50°45' E 001°23'1010.6
2014-Oct-08 05:34N 50°37' E 001°13'1111.3
2014-Oct-08 04:33N 50°30' E 000°59'1111.3
2014-Oct-08 03:33N 50°26' E 000°42'1110.9
2014-Oct-08 02:34N 50°23' E 000°26'1110.9
2014-Oct-08 01:33N 50°20' E 000°10'  
Track history (hours):
 
Tides and Currents Weather Stations Pressure Air Temp Water Temp Dewpoint Dewpoint Depression Visibility Wind Speed Wind Dir Waves Ship Positions

Hawk

Last reported at 2014-Oct-16 21:07 UTC. Time now 2014-Oct-22 22:22 UTC.
Position N 50°01' W 002°52'.

Length 223 m; draft 8.7 m.

Type: Cargo ship. MMSI: 259848000.

Date/timePositionNaut miles runAvg speedWind from/ knotsBaromVisibWave heightAir tempDewpointWater temp
2014-Oct-16 21:07N 50°01' W 002°52'4 7.0
2014-Oct-16 20:33N 50°02' W 002°46'7 6.6
2014-Oct-16 19:33N 50°04' W 002°36'12 8.3
2014-Oct-16 18:09N 50°07' W 002°19'712.6
2014-Oct-16 17:33N 50°09' W 002°08'42 9.4
2014-Oct-16 13:06N 50°21' W 001°05'40 1.7
2014-Oct-15 13:03N 50°33' W 000°05'2 3.8
2014-Oct-15 12:30N 50°33' W 000°02'4 4.2
2014-Oct-15 11:33N 50°34' E 000°04'5 4.8
2014-Oct-15 10:33N 50°35' E 000°11'6 5.6
2014-Oct-15 09:33N 50°37' E 000°20'6 6.3
2014-Oct-15 08:33N 50°38' E 000°30'1111.0
2014-Oct-15 07:33N 50°43' E 000°45'1312.4
2014-Oct-15 06:31N 50°51' E 001°01'5 5.7
2014-Oct-15 05:33N 50°54' E 001°08'6 6.5
2014-Oct-15 04:34N 50°58' E 001°16'6 5.7
2014-Oct-15 03:33N 51°02' E 001°23'6 5.6
2014-Oct-15 02:33N 51°06' E 001°30'6 5.6
2014-Oct-15 01:33N 51°09' E 001°37'7 6.9
2014-Oct-15 00:34N 51°13' E 001°45'7 7.4
2014-Oct-14 23:33N 51°20' E 001°50'7 6.9
2014-Oct-14 22:33N 51°26' E 001°54'6 5.6
2014-Oct-14 21:33N 51°31' E 001°60'6 5.9
2014-Oct-14 20:33N 51°35' E 002°06'6 6.3
2014-Oct-14 19:33N 51°40' E 002°13'6 5.8
2014-Oct-14 18:33N 51°44' E 002°20'6 5.8
2014-Oct-14 17:32N 51°48' E 002°26'6 5.8
2014-Oct-14 16:26N 51°53' E 002°33'10 5.0
2014-Oct-14 14:25N 52°02' E 002°41'6 6.8
2014-Oct-14 13:33N 52°08' E 002°41'404 9.6
2014-Oct-12 19:27N 58°43' E 005°06'1011.4
2014-Oct-12 18:33N 58°53' E 005°05'1110.9
2014-Oct-12 17:33N 59°03' E 005°12'10 9.8
2014-Oct-12 16:33N 59°06' E 005°31'7 7.4
2014-Oct-12 15:33N 59°02' E 005°41'0 0.1
2014-Oct-12 14:33N 59°02' E 005°41'0 0.1
2014-Oct-12 13:33N 59°02' E 005°42'0 0.0
2014-Oct-12 12:33N 59°02' E 005°42'0 0.0
2014-Oct-12 11:33N 59°02' E 005°42'0 0.0
2014-Oct-12 10:33N 59°02' E 005°41'0 0.1
2014-Oct-12 09:33N 59°02' E 005°41'0 0.0
2014-Oct-12 08:33N 59°02' E 005°41'0 0.1
2014-Oct-12 07:33N 59°02' E 005°41'0 0.0
2014-Oct-12 06:33N 59°02' E 005°41'0 0.1
2014-Oct-12 05:33N 59°02' E 005°41'0 0.1
2014-Oct-12 04:33N 59°02' E 005°41'0 0.0
2014-Oct-12 03:33N 59°02' E 005°41'0 0.1
2014-Oct-12 02:33N 59°02' E 005°41'0 0.0
2014-Oct-12 01:33N 59°02' E 005°41'0 0.1
2014-Oct-12 00:33N 59°02' E 005°41'0 0.0
2014-Oct-11 23:33N 59°02' E 005°41'0 0.0
2014-Oct-11 22:30N 59°02' E 005°41'0 0.0
2014-Oct-11 21:33N 59°02' E 005°41'0 0.0
2014-Oct-11 20:33N 59°02' E 005°41'0 0.1
2014-Oct-11 19:33N 59°02' E 005°41'0 0.1
2014-Oct-11 18:33N 59°02' E 005°41'0 0.0
2014-Oct-11 17:33N 59°02' E 005°41'0 0.0
2014-Oct-11 16:33N 59°02' E 005°41'0 0.0
2014-Oct-11 15:30N 59°02' E 005°41'0 0.0
2014-Oct-11 14:30N 59°02' E 005°41'0 0.0
2014-Oct-11 13:33N 59°02' E 005°41'0 0.0
2014-Oct-11 12:30N 59°02' E 005°41'0 0.0
2014-Oct-11 11:33N 59°02' E 005°41'0 0.0
2014-Oct-11 10:24N 59°02' E 005°41'0 0.0
2014-Oct-11 09:33N 59°02' E 005°41'0 0.0
2014-Oct-11 08:33N 59°02' E 005°41'0 0.0
2014-Oct-11 07:33N 59°02' E 005°41'0 0.0
2014-Oct-11 06:33N 59°02' E 005°41'0 0.1
2014-Oct-11 05:33N 59°02' E 005°41'0 0.0
2014-Oct-11 04:33N 59°02' E 005°41'0 0.0
2014-Oct-11 03:33N 59°02' E 005°41'0 0.0
2014-Oct-11 02:33N 59°02' E 005°41'0 0.0
2014-Oct-11 01:33N 59°02' E 005°41'0 0.0
2014-Oct-11 00:33N 59°02' E 005°41'0 0.0
2014-Oct-10 23:33N 59°02' E 005°42'0 0.1
2014-Oct-10 22:33N 59°02' E 005°41'0 0.0
2014-Oct-10 21:33N 59°02' E 005°41'0 0.0
2014-Oct-10 20:33N 59°02' E 005°41'0 0.2
2014-Oct-10 19:33N 59°02' E 005°42'0 0.0
2014-Oct-10 18:33N 59°02' E 005°42'0 0.0
2014-Oct-10 17:33N 59°02' E 005°42'0 0.0
2014-Oct-10 16:33N 59°02' E 005°42'0 0.0
2014-Oct-10 15:33N 59°02' E 005°42'0 0.1
2014-Oct-10 14:33N 59°02' E 005°42'0 0.1
2014-Oct-10 13:33N 59°02' E 005°42'0 0.0
2014-Oct-10 12:33N 59°02' E 005°42'0 0.1
2014-Oct-10 11:33N 59°02' E 005°42'0 0.0
2014-Oct-10 10:33N 59°02' E 005°42'0 0.0
2014-Oct-10 09:33N 59°02' E 005°42'0 0.0
2014-Oct-10 08:33N 59°02' E 005°42'0 0.1
2014-Oct-10 07:33N 59°02' E 005°42'0 0.2
2014-Oct-10 06:34N 59°02' E 005°42'5 5.5
2014-Oct-10 05:34N 59°05' E 005°33'5 5.5
2014-Oct-10 04:34N 59°05' E 005°22'8 7.6
2014-Oct-10 03:34N 58°57' E 005°19'9 9.2
2014-Oct-10 02:33N 58°48' E 005°16'10 9.8
2014-Oct-10 01:33N 58°38' E 005°16'10 9.4
2014-Oct-10 00:32N 58°29' E 005°11'11 9.4
2014-Oct-09 23:19N 58°18' E 005°08'8 9.5
2014-Oct-09 22:31N 58°10' E 005°06'9 9.8
2014-Oct-09 21:33N 58°01' E 005°03'23311.6
2014-Oct-09 01:27N 54°08' E 004°36'1112.1
2014-Oct-09 00:33N 53°57' E 004°37'1212.0
2014-Oct-08 23:33N 53°48' E 004°23'1212.3
2014-Oct-08 22:33N 53°40' E 004°07'12912.9
2014-Oct-08 12:33N 51°44' E 002°34'1414.2
2014-Oct-08 11:32N 51°33' E 002°20'1413.9
2014-Oct-08 10:34N 51°21' E 002°09'1312.9
2014-Oct-08 09:33N 51°11' E 001°56'1212.2
2014-Oct-08 08:33N 51°03' E 001°42'1110.9
2014-Oct-08 07:34N 50°55' E 001°30'1110.5
2014-Oct-08 06:33N 50°45' E 001°23'1010.6
2014-Oct-08 05:34N 50°37' E 001°13'1111.3
2014-Oct-08 04:33N 50°30' E 000°59'1111.3
2014-Oct-08 03:33N 50°26' E 000°42'1110.9
2014-Oct-08 02:34N 50°23' E 000°26'1110.9
2014-Oct-08 01:33N 50°20' E 000°10'  

Dump ship's entire track history